Sioux Lookout Airport
CYXL : now visible

Airfield :











YOU CAN JOIN US ON...

 
LOGIN :

Register | Disclaimer

   EN    FR    IT 

 









Legend :    VFR   Marginal VFR   IFR   Intensive IFR   Very Intensive IFR
Visi :
Ceiling :
>= 8 km
>= 3000ft
5 to 8 km
1000 to 3000 ft
1500m to 5 km
500 to 1000 ft
800 to 1500m
200 to 500 ft
< 800m
< 200 ft
Symbols :   Thunderstorms  Fog  Heavy snow  Heavy precipitations  Wind > 20 kt






- Airport Elevation : 1258 ft
- IATA code : YXL


CYXL - Sioux Lookout

CURRENT METAR :
  • 210115Z 31014G21KT 4SM -SN DRSN OVC010 M02/M03 A2904 RMK SC8 SLP860

EXPIRED METARs :
  • 210100Z 30010G16KT 2 1/2SM -SN OVC010 M02/M03 A2903 RMK SF8 SLP859
  • 210000Z 28007KT 1SM -SN VV008 M03/M04 A2901 RMK SN8 SLP851
  • 202318Z 25005KT 220V290 3/4SM -SN VV007 M04/M05 A2900 RMK SN8 SLP849
  • 202300Z 23006KT 180V270 1/2SM SN VV006 M04/M05 A2899 RMK SN8 SLP848
  • 202238Z 20006KT 3/4SM -SN VV006 M05/M06 A2899 RMK SN8 SLP848

TAF TAF CYXL
Valid from the 20 at 20:00 until the 21 at 08:00 UTC


201947Z 2020/2108 19010G20KT 3SM -SN OVC015
TEMPO 2020/2022 3/4SM -SHSN VV007
FM202200 21010KT 3/4SM -SHSN VV007
TEMPO 2022/2102 21/2SM -SN OVC010
BECMG 2022/2024 29010G20KT
FM210200 29010G20KT 11/2SM -SHSN OVC008
TEMPO 2102/2105 4SM -SN OVC025
FM210500 30012G22KT P6SM BKN025 BKN050
TEMPO 2105/2108 4SM -SHSN OVC020 RMK NXT FCST BY 210200Z
CZWG FIR / North America



MET'MAP, your aeronautical weather chart ! - Copyright ORBIFLY December 2007 - Disclaimer

ORBIFLY MET'MAP TEAM :

Programming & Development : Alexandra Zaïnal
Concept & original design : Baudouin d'Aumeries
Assistance for programming : Marc-Olivier Méhu
Technical & hardware support : Manuel Goepfert

Contact : metmap@orbifly.com




SOURCES & CREDITS :

   NOAA       Earth
Advisory